createdAt,value
2023-03-24T00:04:35.180Z,1006.95
2023-03-24T00:09:36.353Z,1006.92
2023-03-24T00:14:36.564Z,1006.90
2023-03-24T00:19:37.693Z,1006.92
2023-03-24T00:24:38.942Z,1007.00
2023-03-24T00:29:40.083Z,1006.99
2023-03-24T00:34:41.222Z,1006.98
2023-03-24T00:39:42.415Z,1007.03
2023-03-24T00:44:44.576Z,1007.03
2023-03-24T00:49:43.805Z,1007.17
2023-03-24T00:54:44.975Z,1007.41
2023-03-24T00:59:46.510Z,1007.50
2023-03-24T01:04:45.648Z,1007.48
2023-03-24T01:09:46.839Z,1007.51
2023-03-24T01:14:48.000Z,1007.37
2023-03-24T01:19:49.149Z,1007.19
2023-03-24T01:24:50.350Z,1007.10
2023-03-24T01:29:51.580Z,1007.02
2023-03-24T01:34:52.886Z,1006.89
2023-03-24T01:39:54.174Z,1006.79
2023-03-24T01:44:55.353Z,1006.84
2023-03-24T01:49:56.576Z,1006.86
2023-03-24T01:54:57.708Z,1006.79
2023-03-24T01:59:58.970Z,1006.81
2023-03-24T02:05:00.120Z,1006.81
2023-03-24T02:10:05.181Z,1006.82
2023-03-24T02:15:02.385Z,1006.73
2023-03-24T02:20:03.567Z,1006.63
2023-03-24T02:25:04.685Z,1006.66
2023-03-24T02:30:05.832Z,1006.52
2023-03-24T02:35:07.032Z,1006.39
2023-03-24T02:40:08.175Z,1006.36
2023-03-24T02:45:09.312Z,1006.30
2023-03-24T02:50:10.530Z,1006.31
2023-03-24T02:55:12.675Z,1006.24
2023-03-24T03:00:11.794Z,1006.25
2023-03-24T03:05:13.023Z,1006.25
2023-03-24T03:10:14.235Z,1006.21
2023-03-24T03:15:16.402Z,1006.17
2023-03-24T03:20:15.641Z,1006.26
2023-03-24T03:25:16.781Z,1006.31
2023-03-24T03:30:17.950Z,1006.29
2023-03-24T03:35:20.286Z,1006.41
2023-03-24T03:40:19.401Z,1006.43
2023-03-24T03:45:20.530Z,1006.41
2023-03-24T03:50:21.741Z,1006.37
2023-03-24T03:55:23.300Z,1006.07
2023-03-24T04:00:24.130Z,1005.65
2023-03-24T04:05:23.125Z,1005.44
2023-03-24T04:10:24.289Z,1005.60
2023-03-24T04:15:25.447Z,1005.65
2023-03-24T04:20:26.651Z,1005.71
2023-03-24T04:25:27.828Z,1005.54
2023-03-24T04:30:28.991Z,1005.71
2023-03-24T04:35:30.169Z,1005.46
2023-03-24T04:40:31.403Z,1005.39
2023-03-24T04:45:32.626Z,1005.37
2023-03-24T04:50:33.747Z,1005.31
2023-03-24T04:55:34.908Z,1005.32
2023-03-24T05:00:36.073Z,1005.33
2023-03-24T05:05:37.280Z,1005.26
2023-03-24T05:10:38.436Z,1005.43
2023-03-24T05:15:39.684Z,1005.38
2023-03-24T05:20:40.797Z,1005.42
2023-03-24T05:25:43.218Z,1005.49
2023-03-24T05:30:42.647Z,1005.46
2023-03-24T05:35:43.941Z,1005.56
2023-03-24T05:40:44.260Z,1005.73
2023-03-24T05:45:43.946Z,1005.88
2023-03-24T05:50:43.365Z,1005.99
2023-03-24T05:55:44.611Z,1006.26
2023-03-24T06:00:45.918Z,1006.39
2023-03-24T06:05:47.343Z,1006.53
2023-03-24T06:10:46.695Z,1006.78
2023-03-24T06:15:48.482Z,1006.93
2023-03-24T06:20:47.797Z,1006.80
2023-03-24T06:25:48.938Z,1006.90
2023-03-24T06:30:50.145Z,1006.83
2023-03-24T06:35:51.361Z,1006.88
2023-03-24T06:40:52.548Z,1006.80
2023-03-24T06:45:53.781Z,1006.95
2023-03-24T06:50:54.947Z,1006.86
2023-03-24T06:55:56.189Z,1006.89
2023-03-24T07:00:57.409Z,1006.98
2023-03-24T07:05:58.606Z,1006.87
2023-03-24T07:10:59.732Z,1006.89
2023-03-24T07:15:59.982Z,1007.01
2023-03-24T07:21:01.125Z,1007.06
2023-03-24T07:26:02.326Z,1007.14
2023-03-24T07:31:04.537Z,1007.10
2023-03-24T07:36:03.814Z,1007.21
2023-03-24T07:41:05.010Z,1007.35
2023-03-24T07:46:08.407Z,1007.46
2023-03-24T07:51:06.297Z,1007.51
2023-03-24T07:56:07.393Z,1007.41
2023-03-24T08:01:08.633Z,1007.53
2023-03-24T08:06:09.873Z,1007.62
2023-03-24T08:11:11.066Z,1007.66
2023-03-24T08:16:12.503Z,1007.62
2023-03-24T08:21:14.064Z,1007.67
2023-03-24T08:26:13.124Z,1007.67
2023-03-24T08:31:14.311Z,1007.75
2023-03-24T08:36:15.463Z,1007.73
2023-03-24T08:41:16.571Z,1007.93
2023-03-24T08:46:17.725Z,1008.17
2023-03-24T08:51:18.928Z,1008.40
2023-03-24T08:56:20.056Z,1008.64
2023-03-24T09:01:21.264Z,1008.58
2023-03-24T09:06:21.391Z,1008.59
2023-03-24T09:11:23.643Z,1008.63
2023-03-24T09:16:23.752Z,1008.91
2023-03-24T09:21:22.898Z,1009.18
2023-03-24T09:26:24.041Z,1009.20
2023-03-24T09:31:25.196Z,1009.22
2023-03-24T09:36:26.369Z,1009.16
2023-03-24T09:41:28.416Z,1008.83
2023-03-24T09:46:28.670Z,1008.59
2023-03-24T09:51:27.731Z,1008.33
2023-03-24T09:56:27.880Z,1008.30
2023-03-24T10:01:30.020Z,1008.38
2023-03-24T10:06:29.199Z,1008.30
2023-03-24T10:11:29.349Z,1008.33
2023-03-24T10:16:30.538Z,1008.29
2023-03-24T10:21:31.659Z,1008.31
2023-03-24T10:26:33.783Z,1008.28
2023-03-24T10:31:32.970Z,1008.25
2023-03-24T10:36:35.108Z,1008.32
2023-03-24T10:41:34.178Z,1008.27
2023-03-24T10:46:35.343Z,1008.30
2023-03-24T10:51:36.398Z,1008.32
2023-03-24T10:56:37.563Z,1008.37
2023-03-24T11:01:39.724Z,1008.44
2023-03-24T11:06:38.806Z,1008.55
2023-03-24T11:11:39.963Z,1008.62
2023-03-24T11:16:41.117Z,1008.68
2023-03-24T11:21:42.236Z,1008.68
2023-03-24T11:26:43.362Z,1008.60
2023-03-24T11:31:45.582Z,1008.64
2023-03-24T11:36:47.138Z,1008.54
2023-03-24T11:41:44.623Z,1008.49
2023-03-24T11:46:45.702Z,1008.36
2023-03-24T11:51:46.854Z,1008.42
2023-03-24T11:56:48.978Z,1008.47
2023-03-24T12:01:47.040Z,1008.40
2023-03-24T12:06:49.231Z,1008.56
2023-03-24T12:11:48.435Z,1008.69
2023-03-24T12:16:49.622Z,1008.53
2023-03-24T12:21:50.715Z,1008.49
2023-03-24T12:26:51.882Z,1008.39
2023-03-24T12:31:53.176Z,1008.32
2023-03-24T12:36:54.415Z,1008.55
2023-03-24T12:41:55.606Z,1008.36
2023-03-24T12:46:56.865Z,1008.30
2023-03-24T12:51:58.927Z,1008.26
2023-03-24T12:56:58.071Z,1008.31
2023-03-24T13:01:59.164Z,1008.21
2023-03-24T13:07:00.238Z,1008.11
2023-03-24T13:12:01.341Z,1008.28
2023-03-24T13:17:02.568Z,1008.42
2023-03-24T13:22:03.670Z,1008.41
2023-03-24T13:27:04.920Z,1008.36
2023-03-24T13:32:06.192Z,1008.64
2023-03-24T13:37:07.319Z,1008.66
2023-03-24T13:42:08.574Z,1008.59
2023-03-24T13:47:09.830Z,1008.64
2023-03-24T13:52:10.925Z,1008.53
2023-03-24T13:57:12.040Z,1008.56
2023-03-24T14:02:13.263Z,1008.49
2023-03-24T14:07:14.472Z,1008.64
2023-03-24T14:12:15.631Z,1008.54
2023-03-24T14:17:16.840Z,1008.57
2023-03-24T14:22:18.080Z,1008.57
2023-03-24T14:27:19.281Z,1008.77
2023-03-24T14:32:22.419Z,1008.76
2023-03-24T14:37:21.484Z,1008.64
2023-03-24T14:42:26.519Z,1008.65
2023-03-24T14:47:23.695Z,1008.75
2023-03-24T14:52:24.844Z,1008.74
2023-03-24T14:57:26.936Z,1008.72
2023-03-24T15:02:26.307Z,1008.88
2023-03-24T15:07:27.582Z,1009.10
2023-03-24T15:12:28.729Z,1008.97
2023-03-24T15:17:29.872Z,1009.17
2023-03-24T15:22:31.102Z,1009.04
2023-03-24T15:27:32.236Z,1008.95
2023-03-24T15:32:33.466Z,1009.02
2023-03-24T15:37:34.562Z,1009.05
2023-03-24T15:42:35.753Z,1009.11
2023-03-24T15:47:36.988Z,1008.89
2023-03-24T15:52:38.118Z,1008.96
2023-03-24T15:57:39.293Z,1008.87
2023-03-24T16:02:40.583Z,1008.74
2023-03-24T16:07:41.714Z,1008.79
2023-03-24T16:12:42.851Z,1008.83
2023-03-24T16:17:44.001Z,1008.99
2023-03-24T16:22:45.135Z,1009.01
2023-03-24T16:27:46.255Z,1009.11
2023-03-24T16:32:47.461Z,1009.06
2023-03-24T16:37:48.599Z,1009.03
2023-03-24T16:42:49.762Z,1008.94
2023-03-24T16:47:51.849Z,1008.93
2023-03-24T16:52:51.979Z,1008.87
2023-03-24T16:57:51.100Z,1008.83
2023-03-24T17:02:52.359Z,1008.84
2023-03-24T17:07:53.538Z,1008.83
2023-03-24T17:12:55.954Z,1009.03
2023-03-24T17:17:55.367Z,1009.01
2023-03-24T17:22:56.515Z,1009.05
2023-03-24T17:27:57.717Z,1009.06
2023-03-24T17:33:00.861Z,1009.10
2023-03-24T17:38:00.098Z,1009.12
2023-03-24T17:43:01.270Z,1009.08
2023-03-24T17:48:01.655Z,1009.12
2023-03-24T17:53:02.883Z,1009.14
2023-03-24T17:58:03.188Z,1009.04
2023-03-24T18:03:05.505Z,1009.19
2023-03-24T18:08:04.737Z,1009.27
2023-03-24T18:13:06.215Z,1009.32
2023-03-24T18:18:06.723Z,1009.46
2023-03-24T18:23:05.959Z,1009.51
2023-03-24T18:28:07.122Z,1009.54
2023-03-24T18:33:08.648Z,1009.69
2023-03-24T18:38:07.945Z,1009.80
2023-03-24T18:43:09.381Z,1009.94
2023-03-24T18:48:11.510Z,1010.15
2023-03-24T18:53:13.068Z,1010.15
2023-03-24T18:58:12.699Z,1010.20
2023-03-24T19:03:12.330Z,1010.25
2023-03-24T19:08:13.670Z,1010.28
2023-03-24T19:13:13.286Z,1010.02
2023-03-24T19:18:13.019Z,1009.89
2023-03-24T19:23:13.413Z,1010.12
2023-03-24T19:28:12.968Z,1009.96
2023-03-24T19:33:13.823Z,1009.62
2023-03-24T19:38:13.341Z,1009.57
2023-03-24T19:43:12.885Z,1009.90
2023-03-24T19:48:12.554Z,1009.85
2023-03-24T19:53:12.149Z,1009.80
2023-03-24T19:58:11.781Z,1009.90
2023-03-24T20:03:11.527Z,1010.14
2023-03-24T20:08:11.023Z,1010.20
2023-03-24T20:13:12.543Z,1010.24
2023-03-24T20:18:11.978Z,1010.18
2023-03-24T20:23:13.512Z,1010.31
2023-03-24T20:28:12.980Z,1010.43
2023-03-24T20:33:12.947Z,1010.34
2023-03-24T20:38:12.906Z,1010.31
2023-03-24T20:43:12.541Z,1010.41
2023-03-24T20:48:12.093Z,1010.47
2023-03-24T20:53:11.639Z,1010.46
2023-03-24T20:58:10.797Z,1010.42
2023-03-24T21:03:13.133Z,1010.52
2023-03-24T21:08:12.549Z,1010.35
2023-03-24T21:13:13.802Z,1010.41
2023-03-24T21:18:15.175Z,1010.32
2023-03-24T21:23:16.674Z,1010.44
2023-03-24T21:28:15.983Z,1010.49
2023-03-24T21:33:17.221Z,1010.52
2023-03-24T21:38:18.329Z,1010.46
2023-03-24T21:43:18.483Z,1010.58
2023-03-24T21:48:19.785Z,1010.76
2023-03-24T21:53:20.967Z,1010.89
2023-03-24T21:58:23.176Z,1010.84
2023-03-24T22:03:22.369Z,1010.91
2023-03-24T22:08:23.590Z,1010.83
2023-03-24T22:13:24.686Z,1010.82
2023-03-24T22:18:25.851Z,1010.81
2023-03-24T22:23:26.983Z,1010.78
2023-03-24T22:28:29.201Z,1010.87
2023-03-24T22:33:28.302Z,1010.76
2023-03-24T22:38:29.427Z,1010.88
2023-03-24T22:43:30.531Z,1010.90
2023-03-24T22:48:31.616Z,1010.83
2023-03-24T22:53:32.809Z,1010.81
2023-03-24T22:58:33.981Z,1010.76
2023-03-24T23:03:35.138Z,1010.63
2023-03-24T23:08:36.329Z,1010.78
2023-03-24T23:13:37.567Z,1010.73
2023-03-24T23:18:38.740Z,1010.72
2023-03-24T23:23:39.922Z,1010.80
2023-03-24T23:28:41.144Z,1010.76
2023-03-24T23:33:42.460Z,1010.71
2023-03-24T23:38:43.659Z,1010.74
2023-03-24T23:43:44.883Z,1010.61
2023-03-24T23:48:47.004Z,1010.62
2023-03-24T23:53:46.190Z,1010.52
2023-03-24T23:58:47.346Z,1010.38
